Ifestos I — SV4139 — position and weather

sailwx.info

Track history (hours):
 
Tides and Currents Weather Stations Pressure Air Temp Water Temp Dewpoint Dewpoint Depression Visibility Wind Speed Wind Dir Waves Ship Positions

Ifestos I

Last reported at 2016-May-27 20:26 UTC. Time now 2016-May-28 10:01 UTC.
Position N 37°57' E 023°37'.

Length 30 m.

Type: Tug. MMSI: 237070500.

Date/timePositionNaut miles runAvg speedWind from/ knotsBaromVisibWave heightAir tempDewpointWater temp
2016-May-27 20:26N 37°57' E 023°37'0 0.0
2016-May-27 19:33N 37°57' E 023°37'0 0.0
2016-May-27 18:33N 37°57' E 023°37'0 0.0
2016-May-27 17:33N 37°57' E 023°37'6 5.6
2016-May-27 16:33N 38°02' E 023°32'1 1.4
2016-May-27 15:33N 38°02' E 023°31'0 0.1
2016-May-27 14:33N 38°02' E 023°31'0 0.0
2016-May-27 13:34N 38°02' E 023°31'0 0.0
2016-May-27 12:33N 38°02' E 023°31'0 0.0
2016-May-27 11:34N 38°02' E 023°31'0 0.0
2016-May-27 10:34N 38°02' E 023°31'0 0.0
2016-May-27 09:34N 38°02' E 023°31'0 0.3
2016-May-27 08:34N 38°02' E 023°31'0 0.3
2016-May-27 07:33N 38°02' E 023°31'0 0.0
2016-May-27 06:33N 38°02' E 023°31'0 0.0
2016-May-27 05:34N 38°02' E 023°31'0 0.0
2016-May-27 04:33N 38°02' E 023°31'0 0.0
2016-May-27 03:33N 38°02' E 023°31'0 0.0
2016-May-27 02:33N 38°02' E 023°31'0 0.0
2016-May-27 01:34N 38°02' E 023°31'0 0.0
2016-May-27 00:34N 38°02' E 023°31'0 0.0
2016-May-26 23:33N 38°02' E 023°31'0 0.0
2016-May-26 22:33N 38°02' E 023°31'0 0.0
2016-May-26 21:33N 38°02' E 023°31'0 0.0
2016-May-26 20:34N 38°02' E 023°31'0 0.0
2016-May-26 19:33N 38°02' E 023°31'0 0.0
2016-May-26 18:33N 38°02' E 023°31'0 0.0
2016-May-26 17:33N 38°02' E 023°31'0 0.0
2016-May-26 16:34N 38°02' E 023°31'0 0.0
2016-May-26 15:34N 38°02' E 023°31'0 0.0
2016-May-26 14:34N 38°02' E 023°31'0 0.0
2016-May-26 13:33N 38°02' E 023°31'0 0.1
2016-May-26 12:34N 38°02' E 023°31'0 0.1
2016-May-26 11:33N 38°02' E 023°31'0 0.0
2016-May-26 10:33N 38°02' E 023°31'3 2.6
2016-May-26 09:33N 38°02' E 023°34'0 0.0
2016-May-26 08:33N 38°02' E 023°34'0 0.0
2016-May-26 07:33N 38°02' E 023°34'3 2.8
2016-May-26 06:33N 38°02' E 023°31'1 1.5
2016-May-26 05:34N 38°02' E 023°32'5 5.2
2016-May-26 04:33N 37°57' E 023°34'2 2.0
2016-May-26 03:34N 37°56' E 023°36'2 0.0
2016-May-24 13:33N 37°57' E 023°37'0 0.0
2016-May-24 12:33N 37°57' E 023°37'0 0.0
2016-May-24 11:34N 37°57' E 023°37'0 0.0
2016-May-24 10:33N 37°57' E 023°37'0 0.1
2016-May-24 09:34N 37°57' E 023°36'2 1.7
2016-May-24 08:33N 37°56' E 023°38'2 1.6
2016-May-24 07:33N 37°57' E 023°37'0 0.0
2016-May-24 06:33N 37°57' E 023°37'0 0.0
2016-May-24 05:33N 37°57' E 023°37'0 0.2
2016-May-24 04:33N 37°57' E 023°36'0 0.2
2016-May-24 03:34N 37°57' E 023°37'0 0.0
2016-May-24 00:32N 37°57' E 023°37'0 0.0
2016-May-23 23:33N 37°57' E 023°37'0 0.0
2016-May-23 22:33N 37°57' E 023°37'0 0.0
2016-May-23 21:33N 37°57' E 023°37'0 0.0
2016-May-23 20:33N 37°57' E 023°37'0 0.0
2016-May-23 19:33N 37°57' E 023°37'3 3.5
2016-May-23 18:33N 37°59' E 023°33'3 3.0
2016-May-23 17:33N 38°01' E 023°36'0 0.0
2016-May-23 16:33N 38°01' E 023°36'0 0.0
2016-May-23 15:33N 38°01' E 023°36'0 0.0
2016-May-23 14:33N 38°01' E 023°36'0 0.0
2016-May-23 13:33N 38°01' E 023°36'4 4.2
2016-May-23 12:33N 37°57' E 023°34'1 1.2
2016-May-23 11:33N 37°57' E 023°35'1 0.9
2016-May-23 10:33N 37°57' E 023°36'1 0.5
2016-May-23 09:33N 37°58' E 023°36'0 0.3
2016-May-23 08:33N 37°57' E 023°37'0 0.0
2016-May-23 07:34N 37°57' E 023°37'0 0.0
2016-May-23 06:33N 37°57' E 023°37'0 0.0
2016-May-23 05:33N 37°57' E 023°37'0 0.0
2016-May-23 04:33N 37°57' E 023°37'0 0.0
2016-May-23 03:33N 37°57' E 023°37'  
2016-May-20 12:06N 37°57' E 023°37'0 0.0
2016-May-20 11:33N 37°57' E 023°37'0 0.0
2016-May-20 10:33N 37°57' E 023°37'0 0.0
2016-May-20 09:33N 37°57' E 023°37'2 1.7
2016-May-20 08:33N 37°56' E 023°38'0 0.2
2016-May-20 07:33N 37°57' E 023°38'0 0.0
2016-May-20 06:33N 37°57' E 023°38'2 2.3
2016-May-20 05:33N 37°57' E 023°36'1 0.6
2016-May-20 04:33N 37°57' E 023°35'1 0.6
2016-May-20 03:33N 37°57' E 023°36'1 0.0
2016-May-19 13:28N 37°57' E 023°37'0 0.0
2016-May-19 12:34N 37°57' E 023°37'3 3.2
2016-May-19 11:34N 37°58' E 023°33'3 2.6
2016-May-19 10:33N 38°01' E 023°33'0 0.0
2016-May-19 09:33N 38°01' E 023°33'2 1.6
2016-May-19 08:33N 38°02' E 023°35'2 1.6
2016-May-19 07:33N 38°01' E 023°34'3 3.1
2016-May-19 06:34N 38°02' E 023°30'0 0.2
2016-May-19 05:34N 38°02' E 023°30'6 6.5
2016-May-19 04:34N 37°57' E 023°36'1 0.6
2016-May-19 03:34N 37°57' E 023°37'0 0.0
2016-May-18 12:33N 37°57' E 023°37'0 0.0
2016-May-18 11:33N 37°57' E 023°37'0 0.0
2016-May-18 10:33N 37°57' E 023°37'0 0.0
2016-May-18 09:33N 37°57' E 023°37'1 0.7
2016-May-18 08:34N 37°57' E 023°36'1 0.7
2016-May-18 07:33N 37°57' E 023°37'0 0.0
2016-May-18 06:33N 37°57' E 023°37'0 0.0
2016-May-18 05:33N 37°57' E 023°37'1 1.5
2016-May-18 04:33N 37°56' E 023°37'0 0.4
2016-May-18 03:33N 37°56' E 023°38'  
Track history (hours):
 
Tides and Currents Weather Stations Pressure Air Temp Water Temp Dewpoint Dewpoint Depression Visibility Wind Speed Wind Dir Waves Ship Positions

Ifestos I

Last reported at 2016-May-27 20:26 UTC. Time now 2016-May-28 10:01 UTC.
Position N 37°57' E 023°37'.

Length 30 m.

Type: Tug. MMSI: 237070500.

Date/timePositionNaut miles runAvg speedWind from/ knotsBaromVisibWave heightAir tempDewpointWater temp
2016-May-27 20:26N 37°57' E 023°37'0 0.0
2016-May-27 19:33N 37°57' E 023°37'0 0.0
2016-May-27 18:33N 37°57' E 023°37'0 0.0
2016-May-27 17:33N 37°57' E 023°37'6 5.6
2016-May-27 16:33N 38°02' E 023°32'1 1.4
2016-May-27 15:33N 38°02' E 023°31'0 0.1
2016-May-27 14:33N 38°02' E 023°31'0 0.0
2016-May-27 13:34N 38°02' E 023°31'0 0.0
2016-May-27 12:33N 38°02' E 023°31'0 0.0
2016-May-27 11:34N 38°02' E 023°31'0 0.0
2016-May-27 10:34N 38°02' E 023°31'0 0.0
2016-May-27 09:34N 38°02' E 023°31'0 0.3
2016-May-27 08:34N 38°02' E 023°31'0 0.3
2016-May-27 07:33N 38°02' E 023°31'0 0.0
2016-May-27 06:33N 38°02' E 023°31'0 0.0
2016-May-27 05:34N 38°02' E 023°31'0 0.0
2016-May-27 04:33N 38°02' E 023°31'0 0.0
2016-May-27 03:33N 38°02' E 023°31'0 0.0
2016-May-27 02:33N 38°02' E 023°31'0 0.0
2016-May-27 01:34N 38°02' E 023°31'0 0.0
2016-May-27 00:34N 38°02' E 023°31'0 0.0
2016-May-26 23:33N 38°02' E 023°31'0 0.0
2016-May-26 22:33N 38°02' E 023°31'0 0.0
2016-May-26 21:33N 38°02' E 023°31'0 0.0
2016-May-26 20:34N 38°02' E 023°31'0 0.0
2016-May-26 19:33N 38°02' E 023°31'0 0.0
2016-May-26 18:33N 38°02' E 023°31'0 0.0
2016-May-26 17:33N 38°02' E 023°31'0 0.0
2016-May-26 16:34N 38°02' E 023°31'0 0.0
2016-May-26 15:34N 38°02' E 023°31'0 0.0
2016-May-26 14:34N 38°02' E 023°31'0 0.0
2016-May-26 13:33N 38°02' E 023°31'0 0.1
2016-May-26 12:34N 38°02' E 023°31'0 0.1
2016-May-26 11:33N 38°02' E 023°31'0 0.0
2016-May-26 10:33N 38°02' E 023°31'3 2.6
2016-May-26 09:33N 38°02' E 023°34'0 0.0
2016-May-26 08:33N 38°02' E 023°34'0 0.0
2016-May-26 07:33N 38°02' E 023°34'3 2.8
2016-May-26 06:33N 38°02' E 023°31'1 1.5
2016-May-26 05:34N 38°02' E 023°32'5 5.2
2016-May-26 04:33N 37°57' E 023°34'2 2.0
2016-May-26 03:34N 37°56' E 023°36'2 0.0
2016-May-24 13:33N 37°57' E 023°37'0 0.0
2016-May-24 12:33N 37°57' E 023°37'0 0.0
2016-May-24 11:34N 37°57' E 023°37'0 0.0
2016-May-24 10:33N 37°57' E 023°37'0 0.1
2016-May-24 09:34N 37°57' E 023°36'2 1.7
2016-May-24 08:33N 37°56' E 023°38'2 1.6
2016-May-24 07:33N 37°57' E 023°37'0 0.0
2016-May-24 06:33N 37°57' E 023°37'0 0.0
2016-May-24 05:33N 37°57' E 023°37'0 0.2
2016-May-24 04:33N 37°57' E 023°36'0 0.2
2016-May-24 03:34N 37°57' E 023°37'0 0.0
2016-May-24 00:32N 37°57' E 023°37'0 0.0
2016-May-23 23:33N 37°57' E 023°37'0 0.0
2016-May-23 22:33N 37°57' E 023°37'0 0.0
2016-May-23 21:33N 37°57' E 023°37'0 0.0
2016-May-23 20:33N 37°57' E 023°37'0 0.0
2016-May-23 19:33N 37°57' E 023°37'3 3.5
2016-May-23 18:33N 37°59' E 023°33'3 3.0
2016-May-23 17:33N 38°01' E 023°36'0 0.0
2016-May-23 16:33N 38°01' E 023°36'0 0.0
2016-May-23 15:33N 38°01' E 023°36'0 0.0
2016-May-23 14:33N 38°01' E 023°36'0 0.0
2016-May-23 13:33N 38°01' E 023°36'4 4.2
2016-May-23 12:33N 37°57' E 023°34'1 1.2
2016-May-23 11:33N 37°57' E 023°35'1 0.9
2016-May-23 10:33N 37°57' E 023°36'1 0.5
2016-May-23 09:33N 37°58' E 023°36'0 0.3
2016-May-23 08:33N 37°57' E 023°37'0 0.0
2016-May-23 07:34N 37°57' E 023°37'0 0.0
2016-May-23 06:33N 37°57' E 023°37'0 0.0
2016-May-23 05:33N 37°57' E 023°37'0 0.0
2016-May-23 04:33N 37°57' E 023°37'0 0.0
2016-May-23 03:33N 37°57' E 023°37'  
2016-May-20 12:06N 37°57' E 023°37'0 0.0
2016-May-20 11:33N 37°57' E 023°37'0 0.0
2016-May-20 10:33N 37°57' E 023°37'0 0.0
2016-May-20 09:33N 37°57' E 023°37'2 1.7
2016-May-20 08:33N 37°56' E 023°38'0 0.2
2016-May-20 07:33N 37°57' E 023°38'0 0.0
2016-May-20 06:33N 37°57' E 023°38'2 2.3
2016-May-20 05:33N 37°57' E 023°36'1 0.6
2016-May-20 04:33N 37°57' E 023°35'1 0.6
2016-May-20 03:33N 37°57' E 023°36'1 0.0
2016-May-19 13:28N 37°57' E 023°37'0 0.0
2016-May-19 12:34N 37°57' E 023°37'3 3.2
2016-May-19 11:34N 37°58' E 023°33'3 2.6
2016-May-19 10:33N 38°01' E 023°33'0 0.0
2016-May-19 09:33N 38°01' E 023°33'2 1.6
2016-May-19 08:33N 38°02' E 023°35'2 1.6
2016-May-19 07:33N 38°01' E 023°34'3 3.1
2016-May-19 06:34N 38°02' E 023°30'0 0.2
2016-May-19 05:34N 38°02' E 023°30'6 6.5
2016-May-19 04:34N 37°57' E 023°36'1 0.6
2016-May-19 03:34N 37°57' E 023°37'0 0.0
2016-May-18 12:33N 37°57' E 023°37'0 0.0
2016-May-18 11:33N 37°57' E 023°37'0 0.0
2016-May-18 10:33N 37°57' E 023°37'0 0.0
2016-May-18 09:33N 37°57' E 023°37'1 0.7
2016-May-18 08:34N 37°57' E 023°36'1 0.7
2016-May-18 07:33N 37°57' E 023°37'0 0.0
2016-May-18 06:33N 37°57' E 023°37'0 0.0
2016-May-18 05:33N 37°57' E 023°37'1 1.5
2016-May-18 04:33N 37°56' E 023°37'0 0.4
2016-May-18 03:33N 37°56' E 023°38'  

Dump ship's entire track history